sensor_id;sensor_type;location;lat;lon;timestamp;P1;durP1;ratioP1;P2;durP2;ratioP2
37507;SDS011;23360;46.936;15.514;2024-03-02T00:01:52;139.02;;;46.30;;
37507;SDS011;23360;46.936;15.514;2024-03-02T00:04:38;128.07;;;44.70;;
37507;SDS011;23360;46.936;15.514;2024-03-02T00:07:23;128.32;;;44.08;;
37507;SDS011;23360;46.936;15.514;2024-03-02T00:10:10;136.55;;;48.00;;
37507;SDS011;23360;46.936;15.514;2024-03-02T00:12:56;139.63;;;45.78;;
37507;SDS011;23360;46.936;15.514;2024-03-02T00:15:55;129.88;;;43.42;;
37507;SDS011;23360;46.936;15.514;2024-03-02T00:18:40;116.95;;;41.35;;
37507;SDS011;23360;46.936;15.514;2024-03-02T00:21:26;124.88;;;43.25;;
37507;SDS011;23360;46.936;15.514;2024-03-02T00:24:31;138.45;;;44.17;;
37507;SDS011;23360;46.936;15.514;2024-03-02T00:27:17;128.23;;;46.25;;
37507;SDS011;23360;46.936;15.514;2024-03-02T00:30:06;124.90;;;43.67;;
37507;SDS011;23360;46.936;15.514;2024-03-02T00:33:08;123.43;;;43.83;;
37507;SDS011;23360;46.936;15.514;2024-03-02T00:35:53;124.60;;;45.58;;
37507;SDS011;23360;46.936;15.514;2024-03-02T00:38:46;145.68;;;47.42;;
37507;SDS011;23360;46.936;15.514;2024-03-02T00:41:31;144.60;;;46.80;;
37507;SDS011;23360;46.936;15.514;2024-03-02T00:44:17;148.70;;;49.03;;
37507;SDS011;23360;46.936;15.514;2024-03-02T00:47:03;153.65;;;46.05;;
37507;SDS011;23360;46.936;15.514;2024-03-02T00:49:48;169.02;;;47.25;;
37507;SDS011;23360;46.936;15.514;2024-03-02T00:52:33;137.75;;;45.70;;
37507;SDS011;23360;46.936;15.514;2024-03-02T00:55:20;150.70;;;45.55;;
37507;SDS011;23360;46.936;15.514;2024-03-02T00:58:05;135.63;;;44.08;;
37507;SDS011;23360;46.936;15.514;2024-03-02T01:00:50;155.00;;;47.92;;
37507;SDS011;23360;46.936;15.514;2024-03-02T01:03:35;131.60;;;45.17;;
37507;SDS011;23360;46.936;15.514;2024-03-02T01:06:22;128.95;;;44.63;;
37507;SDS011;23360;46.936;15.514;2024-03-02T01:09:08;148.05;;;45.67;;
37507;SDS011;23360;46.936;15.514;2024-03-02T01:11:53;154.93;;;44.97;;
37507;SDS011;23360;46.936;15.514;2024-03-02T01:14:38;127.72;;;42.60;;
37507;SDS011;23360;46.936;15.514;2024-03-02T01:17:23;149.55;;;48.55;;
37507;SDS011;23360;46.936;15.514;2024-03-02T01:20:09;155.45;;;45.55;;
37507;SDS011;23360;46.936;15.514;2024-03-02T01:22:54;135.82;;;45.10;;
37507;SDS011;23360;46.936;15.514;2024-03-02T01:25:40;155.70;;;46.22;;
37507;SDS011;23360;46.936;15.514;2024-03-02T01:28:26;159.27;;;46.80;;
37507;SDS011;23360;46.936;15.514;2024-03-02T01:31:11;137.55;;;43.97;;
37507;SDS011;23360;46.936;15.514;2024-03-02T01:33:56;141.93;;;45.08;;
37507;SDS011;23360;46.936;15.514;2024-03-02T01:36:42;136.60;;;44.70;;
37507;SDS011;23360;46.936;15.514;2024-03-02T01:39:27;135.93;;;41.20;;
37507;SDS011;23360;46.936;15.514;2024-03-02T01:42:12;147.52;;;42.13;;
37507;SDS011;23360;46.936;15.514;2024-03-02T01:44:57;141.88;;;42.97;;
37507;SDS011;23360;46.936;15.514;2024-03-02T01:47:42;163.70;;;44.60;;
37507;SDS011;23360;46.936;15.514;2024-03-02T01:50:28;142.93;;;43.25;;
37507;SDS011;23360;46.936;15.514;2024-03-02T01:53:13;152.95;;;44.67;;
37507;SDS011;23360;46.936;15.514;2024-03-02T01:55:59;135.55;;;45.22;;
37507;SDS011;23360;46.936;15.514;2024-03-02T01:58:44;151.50;;;43.95;;
37507;SDS011;23360;46.936;15.514;2024-03-02T02:01:29;141.75;;;43.15;;
37507;SDS011;23360;46.936;15.514;2024-03-02T02:04:16;127.55;;;40.70;;
37507;SDS011;23360;46.936;15.514;2024-03-02T02:07:01;128.02;;;40.78;;
37507;SDS011;23360;46.936;15.514;2024-03-02T02:09:46;130.13;;;45.47;;
37507;SDS011;23360;46.936;15.514;2024-03-02T02:12:31;138.80;;;44.88;;
37507;SDS011;23360;46.936;15.514;2024-03-02T02:15:26;130.30;;;45.15;;
37507;SDS011;23360;46.936;15.514;2024-03-02T02:18:12;145.60;;;45.83;;
37507;SDS011;23360;46.936;15.514;2024-03-02T02:20:58;134.65;;;42.42;;
37507;SDS011;23360;46.936;15.514;2024-03-02T02:23:43;135.95;;;44.30;;
37507;SDS011;23360;46.936;15.514;2024-03-02T02:26:31;160.02;;;45.72;;
37507;SDS011;23360;46.936;15.514;2024-03-02T02:29:16;163.75;;;46.78;;
37507;SDS011;23360;46.936;15.514;2024-03-02T02:32:02;151.95;;;47.95;;
37507;SDS011;23360;46.936;15.514;2024-03-02T02:34:51;130.82;;;43.92;;
37507;SDS011;23360;46.936;15.514;2024-03-02T02:37:37;129.85;;;43.95;;
37507;SDS011;23360;46.936;15.514;2024-03-02T02:40:22;124.43;;;41.70;;
37507;SDS011;23360;46.936;15.514;2024-03-02T02:43:07;135.68;;;45.00;;
37507;SDS011;23360;46.936;15.514;2024-03-02T02:45:52;126.43;;;41.92;;
37507;SDS011;23360;46.936;15.514;2024-03-02T02:48:38;113.70;;;41.33;;
37507;SDS011;23360;46.936;15.514;2024-03-02T02:51:23;112.75;;;38.20;;
37507;SDS011;23360;46.936;15.514;2024-03-02T02:54:10;127.07;;;41.63;;
37507;SDS011;23360;46.936;15.514;2024-03-02T02:56:55;115.55;;;40.55;;
37507;SDS011;23360;46.936;15.514;2024-03-02T02:59:41;131.20;;;41.22;;
37507;SDS011;23360;46.936;15.514;2024-03-02T03:02:27;124.10;;;41.00;;
37507;SDS011;23360;46.936;15.514;2024-03-02T03:05:13;109.72;;;39.00;;
37507;SDS011;23360;46.936;15.514;2024-03-02T03:07:59;137.50;;;42.13;;
37507;SDS011;23360;46.936;15.514;2024-03-02T03:10:44;128.13;;;40.00;;
37507;SDS011;23360;46.936;15.514;2024-03-02T03:13:30;125.20;;;41.72;;
37507;SDS011;23360;46.936;15.514;2024-03-02T03:16:15;117.90;;;41.30;;
37507;SDS011;23360;46.936;15.514;2024-03-02T03:19:01;110.25;;;38.88;;
37507;SDS011;23360;46.936;15.514;2024-03-02T03:21:46;123.07;;;40.05;;
37507;SDS011;23360;46.936;15.514;2024-03-02T03:24:31;108.25;;;38.95;;
37507;SDS011;23360;46.936;15.514;2024-03-02T03:27:18;109.70;;;37.78;;
37507;SDS011;23360;46.936;15.514;2024-03-02T03:30:05;114.57;;;40.78;;
37507;SDS011;23360;46.936;15.514;2024-03-02T03:32:51;131.07;;;39.90;;
37507;SDS011;23360;46.936;15.514;2024-03-02T03:35:36;113.53;;;40.97;;
37507;SDS011;23360;46.936;15.514;2024-03-02T03:38:22;113.55;;;38.50;;
37507;SDS011;23360;46.936;15.514;2024-03-02T03:41:08;102.97;;;36.78;;
37507;SDS011;23360;46.936;15.514;2024-03-02T03:43:53;100.25;;;37.55;;
37507;SDS011;23360;46.936;15.514;2024-03-02T03:46:39;110.80;;;37.90;;
37507;SDS011;23360;46.936;15.514;2024-03-02T03:49:24;117.43;;;40.05;;
37507;SDS011;23360;46.936;15.514;2024-03-02T03:52:10;130.00;;;42.88;;
37507;SDS011;23360;46.936;15.514;2024-03-02T03:54:55;112.97;;;38.00;;
37507;SDS011;23360;46.936;15.514;2024-03-02T03:57:40;114.30;;;41.08;;
37507;SDS011;23360;46.936;15.514;2024-03-02T04:00:25;117.40;;;39.90;;
37507;SDS011;23360;46.936;15.514;2024-03-02T04:03:11;118.10;;;38.53;;
37507;SDS011;23360;46.936;15.514;2024-03-02T04:05:56;129.68;;;41.17;;
37507;SDS011;23360;46.936;15.514;2024-03-02T04:08:41;110.95;;;40.28;;
37507;SDS011;23360;46.936;15.514;2024-03-02T04:11:26;105.78;;;37.75;;
37507;SDS011;23360;46.936;15.514;2024-03-02T04:14:11;109.22;;;37.80;;
37507;SDS011;23360;46.936;15.514;2024-03-02T04:16:57;104.85;;;34.67;;
37507;SDS011;23360;46.936;15.514;2024-03-02T04:19:42;115.50;;;35.83;;
37507;SDS011;23360;46.936;15.514;2024-03-02T04:22:27;108.57;;;35.10;;
37507;SDS011;23360;46.936;15.514;2024-03-02T04:25:13;92.93;;;34.45;;
37507;SDS011;23360;46.936;15.514;2024-03-02T04:27:58;102.07;;;34.35;;
37507;SDS011;23360;46.936;15.514;2024-03-02T04:30:43;100.90;;;33.35;;
37507;SDS011;23360;46.936;15.514;2024-03-02T04:33:28;107.93;;;34.25;;
37507;SDS011;23360;46.936;15.514;2024-03-02T04:36:13;89.57;;;32.15;;
37507;SDS011;23360;46.936;15.514;2024-03-02T04:38:58;105.97;;;34.20;;
37507;SDS011;23360;46.936;15.514;2024-03-02T04:41:43;97.35;;;32.58;;
37507;SDS011;23360;46.936;15.514;2024-03-02T04:44:29;97.22;;;33.60;;
37507;SDS011;23360;46.936;15.514;2024-03-02T04:47:13;94.57;;;34.50;;
37507;SDS011;23360;46.936;15.514;2024-03-02T04:49:59;97.38;;;33.83;;
37507;SDS011;23360;46.936;15.514;2024-03-02T04:52:44;91.95;;;32.03;;
37507;SDS011;23360;46.936;15.514;2024-03-02T04:55:29;103.55;;;33.47;;
37507;SDS011;23360;46.936;15.514;2024-03-02T04:58:23;97.07;;;32.72;;
37507;SDS011;23360;46.936;15.514;2024-03-02T05:01:09;99.55;;;34.20;;
37507;SDS011;23360;46.936;15.514;2024-03-02T05:03:54;98.75;;;37.45;;
37507;SDS011;23360;46.936;15.514;2024-03-02T05:06:40;102.38;;;35.97;;
37507;SDS011;23360;46.936;15.514;2024-03-02T05:09:26;93.63;;;32.40;;
37507;SDS011;23360;46.936;15.514;2024-03-02T05:12:11;105.63;;;33.72;;
37507;SDS011;23360;46.936;15.514;2024-03-02T05:14:56;93.47;;;32.47;;
37507;SDS011;23360;46.936;15.514;2024-03-02T05:17:41;94.43;;;33.67;;
37507;SDS011;23360;46.936;15.514;2024-03-02T05:20:30;87.57;;;30.98;;
37507;SDS011;23360;46.936;15.514;2024-03-02T05:23:15;92.97;;;31.20;;
37507;SDS011;23360;46.936;15.514;2024-03-02T05:26:00;91.57;;;32.03;;
37507;SDS011;23360;46.936;15.514;2024-03-02T05:28:46;93.80;;;31.83;;
37507;SDS011;23360;46.936;15.514;2024-03-02T05:31:31;95.97;;;31.77;;
37507;SDS011;23360;46.936;15.514;2024-03-02T05:34:16;105.30;;;31.90;;
37507;SDS011;23360;46.936;15.514;2024-03-02T05:37:02;106.60;;;35.47;;
37507;SDS011;23360;46.936;15.514;2024-03-02T05:39:47;91.40;;;33.03;;
37507;SDS011;23360;46.936;15.514;2024-03-02T05:42:32;104.10;;;33.25;;
37507;SDS011;23360;46.936;15.514;2024-03-02T05:45:17;92.15;;;33.22;;
37507;SDS011;23360;46.936;15.514;2024-03-02T05:48:03;99.38;;;34.60;;
37507;SDS011;23360;46.936;15.514;2024-03-02T05:50:48;100.05;;;34.80;;
37507;SDS011;23360;46.936;15.514;2024-03-02T05:53:33;102.03;;;33.97;;
37507;SDS011;23360;46.936;15.514;2024-03-02T05:56:19;101.18;;;34.28;;
37507;SDS011;23360;46.936;15.514;2024-03-02T05:59:04;100.93;;;33.97;;
37507;SDS011;23360;46.936;15.514;2024-03-02T06:01:58;94.68;;;32.83;;
37507;SDS011;23360;46.936;15.514;2024-03-02T06:04:43;90.63;;;33.70;;
37507;SDS011;23360;46.936;15.514;2024-03-02T06:07:28;87.57;;;32.00;;
37507;SDS011;23360;46.936;15.514;2024-03-02T06:10:13;104.32;;;33.03;;
37507;SDS011;23360;46.936;15.514;2024-03-02T06:13:00;86.55;;;31.50;;
37507;SDS011;23360;46.936;15.514;2024-03-02T06:15:45;100.38;;;33.38;;
37507;SDS011;23360;46.936;15.514;2024-03-02T06:18:31;95.28;;;32.80;;
37507;SDS011;23360;46.936;15.514;2024-03-02T06:21:16;90.75;;;31.10;;
37507;SDS011;23360;46.936;15.514;2024-03-02T06:24:01;90.50;;;33.60;;
37507;SDS011;23360;46.936;15.514;2024-03-02T06:26:46;98.97;;;33.58;;
37507;SDS011;23360;46.936;15.514;2024-03-02T06:29:35;97.22;;;33.03;;
37507;SDS011;23360;46.936;15.514;2024-03-02T06:32:20;87.90;;;30.65;;
37507;SDS011;23360;46.936;15.514;2024-03-02T06:35:05;112.05;;;36.83;;
37507;SDS011;23360;46.936;15.514;2024-03-02T06:37:52;102.78;;;38.25;;
37507;SDS011;23360;46.936;15.514;2024-03-02T06:40:37;88.25;;;32.22;;
37507;SDS011;23360;46.936;15.514;2024-03-02T06:43:24;133.32;;;43.05;;
37507;SDS011;23360;46.936;15.514;2024-03-02T06:46:10;93.13;;;32.53;;
37507;SDS011;23360;46.936;15.514;2024-03-02T06:48:59;89.93;;;31.92;;
37507;SDS011;23360;46.936;15.514;2024-03-02T06:51:44;97.72;;;35.28;;
37507;SDS011;23360;46.936;15.514;2024-03-02T06:54:29;100.60;;;35.75;;
37507;SDS011;23360;46.936;15.514;2024-03-02T06:57:14;98.80;;;33.97;;
37507;SDS011;23360;46.936;15.514;2024-03-02T07:00:01;86.78;;;34.58;;
37507;SDS011;23360;46.936;15.514;2024-03-02T07:02:49;111.35;;;34.38;;
37507;SDS011;23360;46.936;15.514;2024-03-02T07:05:35;105.03;;;35.63;;
37507;SDS011;23360;46.936;15.514;2024-03-02T07:08:20;94.15;;;32.58;;
37507;SDS011;23360;46.936;15.514;2024-03-02T07:11:06;112.25;;;35.03;;
37507;SDS011;23360;46.936;15.514;2024-03-02T07:13:51;88.57;;;32.78;;
37507;SDS011;23360;46.936;15.514;2024-03-02T07:16:37;104.80;;;34.30;;
37507;SDS011;23360;46.936;15.514;2024-03-02T07:19:23;92.03;;;32.53;;
37507;SDS011;23360;46.936;15.514;2024-03-02T07:22:09;86.20;;;30.40;;
37507;SDS011;23360;46.936;15.514;2024-03-02T07:24:54;87.38;;;30.48;;
37507;SDS011;23360;46.936;15.514;2024-03-02T07:27:40;80.38;;;28.10;;
37507;SDS011;23360;46.936;15.514;2024-03-02T07:30:25;78.43;;;27.65;;
37507;SDS011;23360;46.936;15.514;2024-03-02T07:33:10;73.88;;;29.35;;
37507;SDS011;23360;46.936;15.514;2024-03-02T07:35:55;68.68;;;26.50;;
37507;SDS011;23360;46.936;15.514;2024-03-02T07:38:41;60.30;;;23.98;;
37507;SDS011;23360;46.936;15.514;2024-03-02T07:41:27;66.93;;;24.70;;
37507;SDS011;23360;46.936;15.514;2024-03-02T07:44:12;62.50;;;23.55;;
37507;SDS011;23360;46.936;15.514;2024-03-02T07:47:00;66.88;;;23.98;;
37507;SDS011;23360;46.936;15.514;2024-03-02T07:49:46;60.17;;;23.23;;
37507;SDS011;23360;46.936;15.514;2024-03-02T07:52:31;60.83;;;22.90;;
37507;SDS011;23360;46.936;15.514;2024-03-02T07:55:16;65.20;;;24.60;;
37507;SDS011;23360;46.936;15.514;2024-03-02T07:58:01;58.13;;;23.13;;
37507;SDS011;23360;46.936;15.514;2024-03-02T08:00:47;65.85;;;23.20;;
37507;SDS011;23360;46.936;15.514;2024-03-02T08:03:34;61.10;;;23.98;;
37507;SDS011;23360;46.936;15.514;2024-03-02T08:06:19;55.67;;;23.45;;
37507;SDS011;23360;46.936;15.514;2024-03-02T08:09:06;63.22;;;22.10;;
37507;SDS011;23360;46.936;15.514;2024-03-02T08:11:54;55.92;;;23.80;;
37507;SDS011;23360;46.936;15.514;2024-03-02T08:14:41;57.72;;;24.05;;
37507;SDS011;23360;46.936;15.514;2024-03-02T08:17:26;57.47;;;22.58;;
37507;SDS011;23360;46.936;15.514;2024-03-02T08:20:12;60.22;;;22.95;;
37507;SDS011;23360;46.936;15.514;2024-03-02T08:22:57;56.53;;;23.85;;
37507;SDS011;23360;46.936;15.514;2024-03-02T08:25:43;53.35;;;21.95;;
37507;SDS011;23360;46.936;15.514;2024-03-02T08:28:28;52.28;;;21.45;;
37507;SDS011;23360;46.936;15.514;2024-03-02T08:31:13;52.97;;;22.38;;
37507;SDS011;23360;46.936;15.514;2024-03-02T08:33:58;62.45;;;23.85;;
37507;SDS011;23360;46.936;15.514;2024-03-02T08:36:44;64.43;;;23.13;;
37507;SDS011;23360;46.936;15.514;2024-03-02T08:39:29;56.63;;;22.10;;
37507;SDS011;23360;46.936;15.514;2024-03-02T08:42:15;62.22;;;24.10;;
37507;SDS011;23360;46.936;15.514;2024-03-02T08:45:00;52.17;;;21.73;;
37507;SDS011;23360;46.936;15.514;2024-03-02T08:47:46;57.88;;;22.10;;
37507;SDS011;23360;46.936;15.514;2024-03-02T08:50:31;55.30;;;23.10;;
37507;SDS011;23360;46.936;15.514;2024-03-02T08:53:16;57.30;;;23.65;;
37507;SDS011;23360;46.936;15.514;2024-03-02T08:56:03;64.72;;;21.73;;
37507;SDS011;23360;46.936;15.514;2024-03-02T08:58:50;58.95;;;22.98;;
37507;SDS011;23360;46.936;15.514;2024-03-02T09:01:35;51.78;;;23.20;;
37507;SDS011;23360;46.936;15.514;2024-03-02T09:04:26;57.63;;;23.60;;
37507;SDS011;23360;46.936;15.514;2024-03-02T09:07:14;49.42;;;21.30;;
37507;SDS011;23360;46.936;15.514;2024-03-02T09:09:59;55.67;;;22.58;;
37507;SDS011;23360;46.936;15.514;2024-03-02T09:12:44;57.05;;;21.38;;
37507;SDS011;23360;46.936;15.514;2024-03-02T09:15:30;51.55;;;21.88;;
37507;SDS011;23360;46.936;15.514;2024-03-02T09:18:18;54.47;;;23.27;;
37507;SDS011;23360;46.936;15.514;2024-03-02T09:21:03;63.20;;;23.58;;
37507;SDS011;23360;46.936;15.514;2024-03-02T09:23:49;54.92;;;21.75;;
37507;SDS011;23360;46.936;15.514;2024-03-02T09:26:34;51.03;;;21.02;;
37507;SDS011;23360;46.936;15.514;2024-03-02T09:29:19;57.33;;;22.42;;
37507;SDS011;23360;46.936;15.514;2024-03-02T09:32:06;62.10;;;22.80;;
37507;SDS011;23360;46.936;15.514;2024-03-02T09:34:51;66.57;;;22.90;;
37507;SDS011;23360;46.936;15.514;2024-03-02T09:37:38;49.00;;;21.15;;
37507;SDS011;23360;46.936;15.514;2024-03-02T09:40:23;52.05;;;20.92;;
37507;SDS011;23360;46.936;15.514;2024-03-02T09:43:10;53.35;;;22.15;;
37507;SDS011;23360;46.936;15.514;2024-03-02T09:45:55;55.97;;;21.27;;
37507;SDS011;23360;46.936;15.514;2024-03-02T09:48:40;58.47;;;22.08;;
37507;SDS011;23360;46.936;15.514;2024-03-02T09:51:25;49.15;;;20.70;;
37507;SDS011;23360;46.936;15.514;2024-03-02T09:54:11;51.28;;;21.70;;
37507;SDS011;23360;46.936;15.514;2024-03-02T09:57:06;51.30;;;22.70;;
37507;SDS011;23360;46.936;15.514;2024-03-02T09:59:51;45.45;;;20.65;;
37507;SDS011;23360;46.936;15.514;2024-03-02T10:02:36;46.80;;;19.75;;
37507;SDS011;23360;46.936;15.514;2024-03-02T10:05:25;44.22;;;20.27;;
37507;SDS011;23360;46.936;15.514;2024-03-02T10:08:11;50.22;;;21.05;;
37507;SDS011;23360;46.936;15.514;2024-03-02T10:10:56;43.88;;;19.95;;
37507;SDS011;23360;46.936;15.514;2024-03-02T10:13:42;41.50;;;19.02;;
37507;SDS011;23360;46.936;15.514;2024-03-02T10:16:28;50.15;;;19.65;;
37507;SDS011;23360;46.936;15.514;2024-03-02T10:19:16;32.97;;;17.17;;
37507;SDS011;23360;46.936;15.514;2024-03-02T10:22:06;34.20;;;15.52;;
37507;SDS011;23360;46.936;15.514;2024-03-02T10:24:51;48.88;;;17.35;;
37507;SDS011;23360;46.936;15.514;2024-03-02T10:27:43;44.15;;;18.52;;
37507;SDS011;23360;46.936;15.514;2024-03-02T10:30:28;39.95;;;17.58;;
37507;SDS011;23360;46.936;15.514;2024-03-02T10:33:14;42.72;;;17.83;;
37507;SDS011;23360;46.936;15.514;2024-03-02T10:35:59;41.00;;;17.10;;
37507;SDS011;23360;46.936;15.514;2024-03-02T10:38:46;32.13;;;12.45;;
37507;SDS011;23360;46.936;15.514;2024-03-02T10:41:35;30.58;;;14.65;;
37507;SDS011;23360;46.936;15.514;2024-03-02T10:44:21;35.53;;;15.13;;
37507;SDS011;23360;46.936;15.514;2024-03-02T10:47:07;34.45;;;13.82;;
37507;SDS011;23360;46.936;15.514;2024-03-02T10:49:54;29.25;;;11.95;;
37507;SDS011;23360;46.936;15.514;2024-03-02T10:52:39;33.22;;;11.85;;
37507;SDS011;23360;46.936;15.514;2024-03-02T10:55:25;25.70;;;11.50;;
37507;SDS011;23360;46.936;15.514;2024-03-02T10:58:10;34.38;;;14.88;;
37507;SDS011;23360;46.936;15.514;2024-03-02T11:00:57;43.95;;;13.73;;
37507;SDS011;23360;46.936;15.514;2024-03-02T11:03:43;34.75;;;12.90;;
37507;SDS011;23360;46.936;15.514;2024-03-02T11:06:30;40.28;;;13.73;;
37507;SDS011;23360;46.936;15.514;2024-03-02T11:09:19;28.20;;;12.05;;
37507;SDS011;23360;46.936;15.514;2024-03-02T11:12:27;34.92;;;12.95;;
37507;SDS011;23360;46.936;15.514;2024-03-02T11:15:15;44.45;;;13.80;;
37507;SDS011;23360;46.936;15.514;2024-03-02T11:18:03;33.33;;;15.13;;
37507;SDS011;23360;46.936;15.514;2024-03-02T11:20:50;28.38;;;13.80;;
37507;SDS011;23360;46.936;15.514;2024-03-02T11:23:35;30.80;;;13.15;;
37507;SDS011;23360;46.936;15.514;2024-03-02T11:26:21;29.83;;;12.55;;
37507;SDS011;23360;46.936;15.514;2024-03-02T11:29:06;28.52;;;13.10;;
37507;SDS011;23360;46.936;15.514;2024-03-02T11:31:58;30.00;;;12.07;;
37507;SDS011;23360;46.936;15.514;2024-03-02T11:34:48;23.13;;;11.23;;
37507;SDS011;23360;46.936;15.514;2024-03-02T11:37:36;24.48;;;9.93;;
37507;SDS011;23360;46.936;15.514;2024-03-02T11:40:22;21.77;;;9.07;;
37507;SDS011;23360;46.936;15.514;2024-03-02T11:43:07;25.83;;;10.23;;
37507;SDS011;23360;46.936;15.514;2024-03-02T11:45:57;24.30;;;9.45;;
37507;SDS011;23360;46.936;15.514;2024-03-02T11:48:44;20.50;;;9.77;;
37507;SDS011;23360;46.936;15.514;2024-03-02T11:51:32;25.02;;;8.50;;
37507;SDS011;23360;46.936;15.514;2024-03-02T11:54:18;21.60;;;8.60;;
37507;SDS011;23360;46.936;15.514;2024-03-02T11:57:03;22.38;;;9.00;;
37507;SDS011;23360;46.936;15.514;2024-03-02T11:59:49;26.55;;;9.77;;
37507;SDS011;23360;46.936;15.514;2024-03-02T12:02:37;20.27;;;8.43;;
37507;SDS011;23360;46.936;15.514;2024-03-02T12:05:23;23.92;;;8.25;;
37507;SDS011;23360;46.936;15.514;2024-03-02T12:08:09;20.33;;;9.15;;
37507;SDS011;23360;46.936;15.514;2024-03-02T12:10:58;23.90;;;8.82;;
37507;SDS011;23360;46.936;15.514;2024-03-02T12:13:51;24.88;;;9.82;;
37507;SDS011;23360;46.936;15.514;2024-03-02T12:19:24;20.70;;;8.68;;
37507;SDS011;23360;46.936;15.514;2024-03-02T12:22:10;24.65;;;8.27;;
37507;SDS011;23360;46.936;15.514;2024-03-02T12:24:55;19.58;;;8.50;;
37507;SDS011;23360;46.936;15.514;2024-03-02T12:27:40;21.98;;;8.57;;
37507;SDS011;23360;46.936;15.514;2024-03-02T12:30:29;21.17;;;8.95;;
37507;SDS011;23360;46.936;15.514;2024-03-02T12:33:15;65.35;;;10.05;;
37507;SDS011;23360;46.936;15.514;2024-03-02T12:36:01;19.48;;;8.20;;
37507;SDS011;23360;46.936;15.514;2024-03-02T12:38:47;23.02;;;8.05;;
37507;SDS011;23360;46.936;15.514;2024-03-02T12:41:32;19.05;;;8.13;;
37507;SDS011;23360;46.936;15.514;2024-03-02T12:44:18;19.10;;;8.85;;
37507;SDS011;23360;46.936;15.514;2024-03-02T12:47:04;22.67;;;8.05;;
37507;SDS011;23360;46.936;15.514;2024-03-02T12:49:49;18.17;;;8.43;;
37507;SDS011;23360;46.936;15.514;2024-03-02T12:52:37;17.70;;;8.77;;
37507;SDS011;23360;46.936;15.514;2024-03-02T12:55:23;21.73;;;8.80;;
37507;SDS011;23360;46.936;15.514;2024-03-02T12:58:08;17.13;;;8.60;;
37507;SDS011;23360;46.936;15.514;2024-03-02T13:01:09;18.58;;;7.28;;
37507;SDS011;23360;46.936;15.514;2024-03-02T13:03:55;20.42;;;8.07;;
37507;SDS011;23360;46.936;15.514;2024-03-02T13:06:42;28.58;;;9.50;;
37507;SDS011;23360;46.936;15.514;2024-03-02T13:09:27;20.90;;;8.50;;
37507;SDS011;23360;46.936;15.514;2024-03-02T13:12:14;21.65;;;8.88;;
37507;SDS011;23360;46.936;15.514;2024-03-02T13:14:59;26.88;;;9.73;;
37507;SDS011;23360;46.936;15.514;2024-03-02T13:17:45;25.52;;;8.80;;
37507;SDS011;23360;46.936;15.514;2024-03-02T13:20:34;26.45;;;11.25;;
37507;SDS011;23360;46.936;15.514;2024-03-02T13:23:20;27.75;;;11.02;;
37507;SDS011;23360;46.936;15.514;2024-03-02T13:26:05;29.95;;;10.55;;
37507;SDS011;23360;46.936;15.514;2024-03-02T13:28:52;31.98;;;11.95;;
37507;SDS011;23360;46.936;15.514;2024-03-02T13:31:37;26.25;;;11.75;;
37507;SDS011;23360;46.936;15.514;2024-03-02T13:34:23;27.63;;;12.20;;
37507;SDS011;23360;46.936;15.514;2024-03-02T13:37:08;30.00;;;13.30;;
37507;SDS011;23360;46.936;15.514;2024-03-02T13:39:53;24.33;;;11.50;;
37507;SDS011;23360;46.936;15.514;2024-03-02T13:42:39;32.55;;;13.32;;
37507;SDS011;23360;46.936;15.514;2024-03-02T13:45:24;30.65;;;12.02;;
37507;SDS011;23360;46.936;15.514;2024-03-02T13:48:10;32.17;;;13.80;;
37507;SDS011;23360;46.936;15.514;2024-03-02T13:50:55;34.38;;;13.73;;
37507;SDS011;23360;46.936;15.514;2024-03-02T13:53:40;27.98;;;12.43;;
37507;SDS011;23360;46.936;15.514;2024-03-02T13:56:26;33.78;;;10.95;;
37507;SDS011;23360;46.936;15.514;2024-03-02T13:59:11;28.00;;;12.82;;
37507;SDS011;23360;46.936;15.514;2024-03-02T14:01:57;29.13;;;13.20;;
37507;SDS011;23360;46.936;15.514;2024-03-02T14:04:42;30.40;;;13.23;;
37507;SDS011;23360;46.936;15.514;2024-03-02T14:07:27;21.95;;;11.32;;
37507;SDS011;23360;46.936;15.514;2024-03-02T14:10:12;29.77;;;13.45;;
37507;SDS011;23360;46.936;15.514;2024-03-02T14:12:58;30.30;;;13.90;;
37507;SDS011;23360;46.936;15.514;2024-03-02T14:15:43;30.63;;;12.80;;
37507;SDS011;23360;46.936;15.514;2024-03-02T14:18:28;31.85;;;13.07;;
37507;SDS011;23360;46.936;15.514;2024-03-02T14:21:13;26.50;;;12.02;;
37507;SDS011;23360;46.936;15.514;2024-03-02T14:23:58;27.48;;;13.32;;
37507;SDS011;23360;46.936;15.514;2024-03-02T14:26:45;30.00;;;13.43;;
37507;SDS011;23360;46.936;15.514;2024-03-02T14:29:30;33.92;;;12.90;;
37507;SDS011;23360;46.936;15.514;2024-03-02T14:32:16;29.85;;;11.82;;
37507;SDS011;23360;46.936;15.514;2024-03-02T14:35:01;24.73;;;12.18;;
37507;SDS011;23360;46.936;15.514;2024-03-02T14:37:46;28.67;;;13.63;;
37507;SDS011;23360;46.936;15.514;2024-03-02T14:40:31;29.77;;;12.35;;
37507;SDS011;23360;46.936;15.514;2024-03-02T14:43:16;24.50;;;12.63;;
37507;SDS011;23360;46.936;15.514;2024-03-02T14:46:02;35.88;;;13.18;;
37507;SDS011;23360;46.936;15.514;2024-03-02T14:48:47;29.00;;;14.13;;
37507;SDS011;23360;46.936;15.514;2024-03-02T14:51:32;30.70;;;14.90;;
37507;SDS011;23360;46.936;15.514;2024-03-02T14:54:18;35.38;;;14.55;;
37507;SDS011;23360;46.936;15.514;2024-03-02T14:57:03;28.50;;;14.90;;
37507;SDS011;23360;46.936;15.514;2024-03-02T14:59:48;33.95;;;15.73;;
37507;SDS011;23360;46.936;15.514;2024-03-02T15:02:33;39.83;;;15.95;;
37507;SDS011;23360;46.936;15.514;2024-03-02T15:05:19;37.67;;;17.02;;
37507;SDS011;23360;46.936;15.514;2024-03-02T15:08:04;35.90;;;17.83;;
37507;SDS011;23360;46.936;15.514;2024-03-02T15:10:49;45.75;;;17.38;;
37507;SDS011;23360;46.936;15.514;2024-03-02T15:13:35;37.65;;;17.85;;
37507;SDS011;23360;46.936;15.514;2024-03-02T15:16:20;41.85;;;17.48;;
37507;SDS011;23360;46.936;15.514;2024-03-02T15:19:05;40.08;;;18.33;;
37507;SDS011;23360;46.936;15.514;2024-03-02T15:21:51;35.88;;;17.55;;
37507;SDS011;23360;46.936;15.514;2024-03-02T15:24:36;39.35;;;17.77;;
37507;SDS011;23360;46.936;15.514;2024-03-02T15:27:22;30.60;;;15.98;;
37507;SDS011;23360;46.936;15.514;2024-03-02T15:30:07;30.85;;;15.85;;
37507;SDS011;23360;46.936;15.514;2024-03-02T15:32:52;39.15;;;16.60;;
37507;SDS011;23360;46.936;15.514;2024-03-02T15:35:37;44.10;;;18.40;;
37507;SDS011;23360;46.936;15.514;2024-03-02T15:38:23;44.50;;;17.67;;
37507;SDS011;23360;46.936;15.514;2024-03-02T15:41:18;35.15;;;15.60;;
37507;SDS011;23360;46.936;15.514;2024-03-02T15:44:03;42.20;;;17.70;;
37507;SDS011;23360;46.936;15.514;2024-03-02T15:46:49;31.05;;;15.68;;
37507;SDS011;23360;46.936;15.514;2024-03-02T15:49:34;52.13;;;17.38;;
37507;SDS011;23360;46.936;15.514;2024-03-02T15:52:19;38.35;;;18.30;;
37507;SDS011;23360;46.936;15.514;2024-03-02T15:55:06;37.65;;;19.08;;
37507;SDS011;23360;46.936;15.514;2024-03-02T15:57:52;43.72;;;19.63;;